LNNPK ENLU-ENKJ
Flight info
| Callsign | LNNPK |
|---|---|
| Flight time | 0h 37m |
| Altitude | 5000 |
| Route | MATZE |
| Aircraft | C172/L-SFG/C |
Departure
| Time | 2026-05-07 19:02 |
|---|---|
| Airport | Lunde Nome Airfield (ENLU) |
Arrival
| Time | 2026-05-07 19:39 |
|---|---|
| Airport | Lillestrøm Airfield, Kjeller (ENKJ) |
| Time | Latitude | Longitude | Altitude | Speed | Heading |
|---|---|---|---|---|---|
| 2026-05-07 18:53 | 59.29652 | 9.13700 | 248 ft | 0 kts | 38° |
| 2026-05-07 18:59 | 59.29652 | 9.13701 | 248 ft | 1 kts | 38° |
| 2026-05-07 18:59 | 59.29643 | 9.13769 | 249 ft | 1 kts | 108° |
| 2026-05-07 18:59 | 59.29634 | 9.13825 | 249 ft | 6 kts | 109° |
| 2026-05-07 19:00 | 59.29616 | 9.13919 | 248 ft | 7 kts | 116° |
| 2026-05-07 19:00 | 59.29614 | 9.13924 | 247 ft | 0 kts | 115° |
| 2026-05-07 19:00 | 59.29614 | 9.13939 | 243 ft | 7 kts | 81° |
| 2026-05-07 19:01 | 59.29629 | 9.13960 | 250 ft | 3 kts | 329° |
| 2026-05-07 19:01 | 59.29682 | 9.13753 | 249 ft | 40 kts | 294° |
| 2026-05-07 19:01 | 59.29851 | 9.12966 | 299 ft | 77 kts | 293° |
| 2026-05-07 19:01 | 59.30070 | 9.11934 | 490 ft | 85 kts | 291° |
| 2026-05-07 19:02 | 59.30320 | 9.10808 | 623 ft | 102 kts | 297° |
| 2026-05-07 19:02 | 59.30694 | 9.09536 | 801 ft | 106 kts | 301° |
| 2026-05-07 19:02 | 59.31072 | 9.08333 | 1066 ft | 102 kts | 299° |
| 2026-05-07 19:02 | 59.31559 | 9.07338 | 1297 ft | 109 kts | 338° |
| 2026-05-07 19:03 | 59.32315 | 9.07341 | 1548 ft | 113 kts | 25° |
| 2026-05-07 19:03 | 59.32839 | 9.08418 | 1852 ft | 111 kts | 70° |
| 2026-05-07 19:03 | 59.33146 | 9.09810 | 2164 ft | 112 kts | 71° |
| 2026-05-07 19:03 | 59.33462 | 9.11189 | 2426 ft | 113 kts | 71° |
| 2026-05-07 19:04 | 59.33781 | 9.12607 | 2734 ft | 114 kts | 70° |
| 2026-05-07 19:04 | 59.34104 | 9.14037 | 3048 ft | 115 kts | 70° |
| 2026-05-07 19:04 | 59.34428 | 9.15468 | 3368 ft | 115 kts | 70° |
| 2026-05-07 19:04 | 59.34752 | 9.16911 | 3650 ft | 117 kts | 71° |
| 2026-05-07 19:05 | 59.35083 | 9.18380 | 3936 ft | 118 kts | 70° |
| 2026-05-07 19:05 | 59.35416 | 9.19860 | 4227 ft | 119 kts | 69° |
| 2026-05-07 19:05 | 59.35750 | 9.21343 | 4502 ft | 119 kts | 69° |
| 2026-05-07 19:05 | 59.36084 | 9.22828 | 4800 ft | 119 kts | 68° |
| 2026-05-07 19:06 | 59.36416 | 9.24305 | 5084 ft | 118 kts | 67° |
| 2026-05-07 19:06 | 59.37080 | 9.27261 | 5650 ft | 119 kts | 66° |
| 2026-05-07 19:06 | 59.37413 | 9.28744 | 5931 ft | 119 kts | 66° |
| 2026-05-07 19:07 | 59.37745 | 9.30228 | 6213 ft | 119 kts | 65° |
| 2026-05-07 19:07 | 59.38079 | 9.31718 | 6505 ft | 119 kts | 65° |
| 2026-05-07 19:07 | 59.38415 | 9.33217 | 6772 ft | 120 kts | 65° |
| 2026-05-07 19:07 | 59.38755 | 9.34739 | 7010 ft | 124 kts | 65° |
| 2026-05-07 19:08 | 59.39109 | 9.36323 | 7204 ft | 131 kts | 65° |
| 2026-05-07 19:08 | 59.39480 | 9.37987 | 7394 ft | 135 kts | 65° |
| 2026-05-07 19:08 | 59.39861 | 9.39695 | 7592 ft | 138 kts | 65° |
| 2026-05-07 19:08 | 59.40254 | 9.41460 | 7748 ft | 143 kts | 66° |
| 2026-05-07 19:09 | 59.40650 | 9.43239 | 7903 ft | 145 kts | 66° |
| 2026-05-07 19:09 | 59.41056 | 9.45066 | 8067 ft | 147 kts | 66° |
| 2026-05-07 19:09 | 59.41468 | 9.46919 | 8172 ft | 152 kts | 66° |
| 2026-05-07 19:09 | 59.41902 | 9.48868 | 8181 ft | 158 kts | 66° |
| 2026-05-07 19:10 | 59.42345 | 9.50865 | 8173 ft | 156 kts | 66° |
| 2026-05-07 19:10 | 59.42765 | 9.52760 | 8162 ft | 149 kts | 66° |
| 2026-05-07 19:10 | 59.43172 | 9.54596 | 8154 ft | 144 kts | 66° |
| 2026-05-07 19:10 | 59.43565 | 9.56374 | 8159 ft | 140 kts | 66° |
| 2026-05-07 19:11 | 59.43954 | 9.58131 | 8159 ft | 140 kts | 66° |
| 2026-05-07 19:11 | 59.44211 | 9.59293 | 8159 ft | 141 kts | 66° |
| 2026-05-07 19:11 | 59.44605 | 9.61076 | 8143 ft | 143 kts | 66° |
| 2026-05-07 19:11 | 59.45002 | 9.62868 | 8144 ft | 142 kts | 65° |
| 2026-05-07 19:12 | 59.45570 | 9.64446 | 8147 ft | 141 kts | 48° |
| 2026-05-07 19:12 | 59.46190 | 9.65949 | 8144 ft | 142 kts | 51° |
| 2026-05-07 19:12 | 59.46791 | 9.67498 | 8147 ft | 142 kts | 51° |
| 2026-05-07 19:12 | 59.47384 | 9.69053 | 8142 ft | 142 kts | 52° |
| 2026-05-07 19:13 | 59.47976 | 9.70617 | 8146 ft | 143 kts | 52° |
| 2026-05-07 19:13 | 59.48572 | 9.72193 | 8146 ft | 143 kts | 52° |
| 2026-05-07 19:13 | 59.49167 | 9.73769 | 8141 ft | 143 kts | 52° |
| 2026-05-07 19:13 | 59.49760 | 9.75340 | 8140 ft | 143 kts | 52° |
| 2026-05-07 19:14 | 59.50354 | 9.76914 | 8140 ft | 143 kts | 52° |
| 2026-05-07 19:14 | 59.50938 | 9.78464 | 8144 ft | 143 kts | 52° |
| 2026-05-07 19:14 | 59.51528 | 9.80030 | 8138 ft | 142 kts | 52° |
| 2026-05-07 19:14 | 59.52116 | 9.81591 | 8137 ft | 141 kts | 52° |
| 2026-05-07 19:15 | 59.52700 | 9.83146 | 8138 ft | 141 kts | 52° |
| 2026-05-07 19:15 | 59.53288 | 9.84711 | 8138 ft | 143 kts | 52° |
| 2026-05-07 19:15 | 59.53880 | 9.86287 | 8140 ft | 143 kts | 52° |
| 2026-05-07 19:15 | 59.54474 | 9.87867 | 8140 ft | 144 kts | 52° |
| 2026-05-07 19:16 | 59.55068 | 9.89450 | 8138 ft | 144 kts | 52° |
| 2026-05-07 19:16 | 59.55661 | 9.91034 | 8138 ft | 143 kts | 52° |
| 2026-05-07 19:16 | 59.56251 | 9.92609 | 8137 ft | 142 kts | 52° |
| 2026-05-07 19:16 | 59.56840 | 9.94181 | 8135 ft | 142 kts | 52° |
| 2026-05-07 19:17 | 59.57429 | 9.95755 | 8136 ft | 143 kts | 52° |
| 2026-05-07 19:17 | 59.58039 | 9.97386 | 7979 ft | 152 kts | 52° |
| 2026-05-07 19:17 | 59.58677 | 9.99095 | 7817 ft | 156 kts | 52° |
| 2026-05-07 19:17 | 59.59326 | 10.00832 | 7640 ft | 158 kts | 52° |
| 2026-05-07 19:18 | 59.59942 | 10.02487 | 7446 ft | 144 kts | 52° |
| 2026-05-07 19:18 | 59.60517 | 10.04033 | 7211 ft | 136 kts | 52° |
| 2026-05-07 19:18 | 59.61072 | 10.05520 | 6989 ft | 133 kts | 52° |
| 2026-05-07 19:18 | 59.61613 | 10.06974 | 6767 ft | 130 kts | 52° |
| 2026-05-07 19:19 | 59.62146 | 10.08406 | 6548 ft | 128 kts | 52° |
| 2026-05-07 19:19 | 59.62671 | 10.09817 | 6308 ft | 127 kts | 52° |
| 2026-05-07 19:19 | 59.63191 | 10.11214 | 6077 ft | 125 kts | 53° |
| 2026-05-07 19:19 | 59.63705 | 10.12600 | 5846 ft | 124 kts | 53° |
| 2026-05-07 19:20 | 59.64215 | 10.13973 | 5620 ft | 123 kts | 53° |
| 2026-05-07 19:20 | 59.64720 | 10.15335 | 5394 ft | 123 kts | 54° |
| 2026-05-07 19:20 | 59.65226 | 10.16697 | 5179 ft | 124 kts | 54° |
| 2026-05-07 19:20 | 59.65740 | 10.18084 | 5025 ft | 123 kts | 54° |
| 2026-05-07 19:21 | 59.66223 | 10.19388 | 5014 ft | 117 kts | 54° |
| 2026-05-07 19:21 | 59.66707 | 10.20695 | 5016 ft | 118 kts | 54° |
| 2026-05-07 19:21 | 59.67194 | 10.22010 | 5016 ft | 119 kts | 55° |
| 2026-05-07 19:21 | 59.67684 | 10.23335 | 5019 ft | 119 kts | 54° |
| 2026-05-07 19:22 | 59.68174 | 10.24662 | 5023 ft | 120 kts | 54° |
| 2026-05-07 19:22 | 59.68659 | 10.25975 | 5020 ft | 119 kts | 54° |
| 2026-05-07 19:22 | 59.69150 | 10.27304 | 5022 ft | 119 kts | 54° |
| 2026-05-07 19:22 | 59.69640 | 10.28635 | 5020 ft | 120 kts | 54° |
| 2026-05-07 19:23 | 59.70140 | 10.29989 | 5025 ft | 123 kts | 55° |
| 2026-05-07 19:23 | 59.70650 | 10.31375 | 5026 ft | 126 kts | 54° |
| 2026-05-07 19:23 | 59.71171 | 10.32789 | 5027 ft | 127 kts | 54° |
| 2026-05-07 19:23 | 59.71695 | 10.34215 | 5026 ft | 128 kts | 54° |
| 2026-05-07 19:24 | 59.72224 | 10.35651 | 5026 ft | 129 kts | 54° |
| 2026-05-07 19:24 | 59.72754 | 10.37095 | 5025 ft | 130 kts | 54° |
| 2026-05-07 19:24 | 59.73285 | 10.38538 | 5025 ft | 129 kts | 54° |
| 2026-05-07 19:24 | 59.73806 | 10.39960 | 5026 ft | 129 kts | 54° |
| 2026-05-07 19:25 | 59.74335 | 10.41400 | 5025 ft | 129 kts | 54° |
| 2026-05-07 19:25 | 59.74863 | 10.42841 | 5025 ft | 129 kts | 54° |
| 2026-05-07 19:25 | 59.75391 | 10.44282 | 5025 ft | 129 kts | 54° |
| 2026-05-07 19:25 | 59.75920 | 10.45728 | 5023 ft | 129 kts | 54° |
| 2026-05-07 19:26 | 59.76448 | 10.47168 | 5025 ft | 129 kts | 54° |
| 2026-05-07 19:26 | 59.76974 | 10.48607 | 5024 ft | 129 kts | 54° |
| 2026-05-07 19:26 | 59.77500 | 10.50045 | 5024 ft | 129 kts | 54° |
| 2026-05-07 19:26 | 59.78026 | 10.51485 | 5025 ft | 129 kts | 54° |
| 2026-05-07 19:27 | 59.78551 | 10.52922 | 5023 ft | 128 kts | 54° |
| 2026-05-07 19:27 | 59.79045 | 10.54277 | 5023 ft | 128 kts | 54° |
| 2026-05-07 19:27 | 59.79569 | 10.55712 | 5018 ft | 128 kts | 54° |
| 2026-05-07 19:27 | 59.80093 | 10.57152 | 5021 ft | 129 kts | 54° |
| 2026-05-07 19:28 | 59.80618 | 10.58592 | 5019 ft | 128 kts | 54° |
| 2026-05-07 19:28 | 59.81141 | 10.60029 | 5018 ft | 128 kts | 54° |
| 2026-05-07 19:28 | 59.81665 | 10.61469 | 5021 ft | 129 kts | 54° |
| 2026-05-07 19:28 | 59.82189 | 10.62912 | 5026 ft | 129 kts | 54° |
| 2026-05-07 19:29 | 59.82708 | 10.64340 | 5022 ft | 129 kts | 54° |
| 2026-05-07 19:29 | 59.83232 | 10.65782 | 5020 ft | 128 kts | 54° |
| 2026-05-07 19:29 | 59.83754 | 10.67221 | 5020 ft | 128 kts | 54° |
| 2026-05-07 19:29 | 59.84277 | 10.68662 | 5017 ft | 128 kts | 54° |
| 2026-05-07 19:30 | 59.84798 | 10.70101 | 5019 ft | 128 kts | 54° |
| 2026-05-07 19:30 | 59.85319 | 10.71538 | 5017 ft | 128 kts | 54° |
| 2026-05-07 19:30 | 59.85838 | 10.72973 | 5019 ft | 128 kts | 54° |
| 2026-05-07 19:30 | 59.86358 | 10.74409 | 5021 ft | 128 kts | 54° |
| 2026-05-07 19:31 | 59.86877 | 10.75844 | 5017 ft | 128 kts | 54° |
| 2026-05-07 19:31 | 59.87399 | 10.77280 | 4970 ft | 123 kts | 53° |
| 2026-05-07 19:31 | 59.87893 | 10.78570 | 4800 ft | 114 kts | 53° |
| 2026-05-07 19:31 | 59.88391 | 10.79855 | 4504 ft | 119 kts | 54° |
| 2026-05-07 19:32 | 59.88861 | 10.81210 | 4240 ft | 121 kts | 57° |
| 2026-05-07 19:32 | 59.89315 | 10.82628 | 3934 ft | 124 kts | 60° |
| 2026-05-07 19:32 | 59.89761 | 10.84120 | 3621 ft | 127 kts | 60° |
| 2026-05-07 19:32 | 59.90200 | 10.85668 | 3218 ft | 128 kts | 63° |
| 2026-05-07 19:33 | 59.90596 | 10.87222 | 2896 ft | 124 kts | 64° |
| 2026-05-07 19:33 | 59.90994 | 10.88738 | 2604 ft | 123 kts | 63° |
| 2026-05-07 19:33 | 59.91402 | 10.90215 | 2376 ft | 119 kts | 63° |
| 2026-05-07 19:33 | 59.91823 | 10.91604 | 2255 ft | 115 kts | 58° |
| 2026-05-07 19:34 | 59.92277 | 10.92862 | 2180 ft | 109 kts | 54° |
| 2026-05-07 19:34 | 59.92721 | 10.94098 | 2056 ft | 112 kts | 56° |
| 2026-05-07 19:34 | 59.93164 | 10.95332 | 1841 ft | 108 kts | 53° |
| 2026-05-07 19:34 | 59.93646 | 10.96437 | 1654 ft | 100 kts | 49° |
| 2026-05-07 19:35 | 59.94098 | 10.97452 | 1535 ft | 96 kts | 51° |
| 2026-05-07 19:35 | 59.94530 | 10.98472 | 1436 ft | 96 kts | 52° |
| 2026-05-07 19:35 | 59.94945 | 10.99490 | 1425 ft | 95 kts | 54° |
| 2026-05-07 19:35 | 59.95368 | 11.00520 | 1367 ft | 96 kts | 49° |
| 2026-05-07 19:36 | 59.95818 | 11.01503 | 1336 ft | 95 kts | 51° |
| 2026-05-07 19:36 | 59.96239 | 11.02504 | 1300 ft | 94 kts | 52° |
| 2026-05-07 19:36 | 59.96646 | 11.03512 | 1298 ft | 92 kts | 55° |
| 2026-05-07 19:36 | 59.97024 | 11.04480 | 1361 ft | 86 kts | 52° |
| 2026-05-07 19:37 | 59.97392 | 11.05392 | 1356 ft | 83 kts | 65° |
| 2026-05-07 19:37 | 59.97444 | 11.06514 | 1282 ft | 84 kts | 112° |
| 2026-05-07 19:37 | 59.97136 | 11.07518 | 1208 ft | 84 kts | 127° |
| 2026-05-07 19:37 | 59.96825 | 11.08413 | 1175 ft | 68 kts | 141° |
| 2026-05-07 19:38 | 59.96387 | 11.08482 | 1030 ft | 71 kts | 216° |
| 2026-05-07 19:38 | 59.96129 | 11.07628 | 780 ft | 77 kts | 257° |
| 2026-05-07 19:38 | 59.96153 | 11.06576 | 600 ft | 76 kts | 285° |
| 2026-05-07 19:38 | 59.96385 | 11.05654 | 460 ft | 73 kts | 305° |
| 2026-05-07 19:39 | 59.96659 | 11.04820 | 363 ft | 69 kts | 303° |
| 2026-05-07 19:39 | 59.96877 | 11.04142 | 353 ft | 41 kts | 303° |
| 2026-05-07 19:39 | 59.96932 | 11.03995 | 354 ft | 3 kts | 102° |
| 2026-05-07 19:39 | 59.96890 | 11.04129 | 357 ft | 14 kts | 122° |
| 2026-05-07 19:40 | 59.96826 | 11.04315 | 356 ft | 16 kts | 124° |
| 2026-05-07 19:40 | 59.96777 | 11.04491 | 357 ft | 10 kts | 90° |
| 2026-05-07 19:40 | 59.96810 | 11.04605 | 359 ft | 10 kts | 53° |
| 2026-05-07 19:40 | 59.96853 | 11.04722 | 357 ft | 8 kts | 53° |
| 2026-05-07 19:41 | 59.96865 | 11.04790 | 359 ft | 5 kts | 118° |
| 2026-05-07 19:41 | 59.96840 | 11.04837 | 357 ft | 7 kts | 139° |
| 2026-05-07 19:41 | 59.96842 | 11.04894 | 356 ft | 3 kts | 53° |
| 2026-05-07 19:41 | 59.96868 | 11.04949 | 355 ft | 4 kts | 69° |
| 2026-05-07 19:42 | 59.96871 | 11.04975 | 354 ft | 0 kts | 50° |